Time;durP1;ratioP1;P1;durP2;ratioP2;P2;SDS_P1;SDS_P2;PMS_P1;PMS_P2;Temp;Humidity;BMP_temperature;BMP_pressure;BME280_temperature;BME280_humidity;BME280_pressure;Samples;Min_cycle;Max_cycle;Signal;HPM_P1;HPM_P2
2022/01/27 00:00:57;;;;;;;117.32;69.90;;;;;;;;;;5030289;28;20056;-84
2022/01/27 00:03:33;;;;;;;130.30;72.60;;;;;;;;;;5016125;28;20070;-85
2022/01/27 00:06:11;;;;;;;117.38;70.07;;;;;;;;;;5002068;28;20030;-85
2022/01/27 00:08:45;;;;;;;113.22;70.63;;;;;;;;;;5007287;28;20033;-83
2022/01/27 00:11:15;;;;;;;119.15;69.72;;;;;;;;;;4989495;28;20058;-84
2022/01/27 00:13:47;;;;;;;113.40;71.80;;;;;;;;;;5010879;28;20049;-83
2022/01/27 00:16:19;;;;;;;123.65;74.68;;;;;;;;;;5000669;28;20080;-84
2022/01/27 00:18:51;;;;;;;119.20;71.32;;;;;;;;;;5007981;28;20026;-84
2022/01/27 00:21:21;;;;;;;117.90;71.57;;;;;;;;;;5007075;28;20026;-85
2022/01/27 00:23:49;;;;;;;129.05;73.93;;;;;;;;;;5007258;28;20041;-85
2022/01/27 00:26:19;;;;;;;123.93;73.68;;;;;;;;;;5013775;28;20014;-84
2022/01/27 00:28:45;;;;;;;125.80;71.43;;;;;;;;;;5018117;28;20014;-84
2022/01/27 00:31:17;;;;;;;117.07;70.53;;;;;;;;;;5036749;28;20034;-84
2022/01/27 00:33:52;;;;;;;130.25;73.40;;;;;;;;;;5031977;28;20036;-83
2022/01/27 00:36:26;;;;;;;120.82;71.15;;;;;;;;;;5013987;28;20031;-84
2022/01/27 00:38:57;;;;;;;125.95;74.65;;;;;;;;;;5019577;28;20028;-83
2022/01/27 00:41:40;;;;;;;125.72;73.80;;;;;;;;;;5018141;28;20033;-84
2022/01/27 00:44:07;;;;;;;132.13;72.53;;;;;;;;;;5007510;28;20104;-85
2022/01/27 00:46:39;;;;;;;130.05;72.70;;;;;;;;;;5003322;28;20015;-82
2022/01/27 00:49:07;;;;;;;131.10;76.38;;;;;;;;;;4994678;28;20018;-84
2022/01/27 00:51:46;;;;;;;129.52;76.40;;;;;;;;;;5025173;28;20026;-84
2022/01/27 00:54:27;;;;;;;125.10;71.88;;;;;;;;;;5016687;28;20032;-84
2022/01/27 01:00:00;;;;;;;123.95;71.97;;;;;;;;;;4991526;28;20487;-83
2022/01/27 01:06:35;;;;;;;135.35;74.60;;;;;;;;;;5017992;28;20022;-84
2022/01/27 01:30:59;;;;;;;123.82;74.95;;;;;;;;;;5019406;28;20087;-84
2022/01/27 01:33:34;;;;;;;120.18;73.32;;;;;;;;;;5005231;28;20030;-84
2022/01/27 01:36:12;;;;;;;134.50;74.60;;;;;;;;;;5014549;28;20061;-84
2022/01/27 01:38:46;;;;;;;126.07;76.00;;;;;;;;;;5006166;28;20034;-85
2022/01/27 01:41:26;;;;;;;116.85;74.93;;;;;;;;;;5021103;28;20020;-84
2022/01/27 01:43:51;;;;;;;120.90;74.35;;;;;;;;;;5020135;28;20002;-84
2022/01/27 01:46:16;;;;;;;121.83;73.17;;;;;;;;;;5025674;22;20080;-82
2022/01/27 01:48:42;;;;;;;115.53;75.73;;;;;;;;;;4999619;28;20041;-82
2022/01/27 01:51:07;;;;;;;126.67;77.63;;;;;;;;;;4986172;28;20033;-81
2022/01/27 01:53:32;;;;;;;132.90;75.70;;;;;;;;;;4985579;28;20033;-81
2022/01/27 01:55:58;;;;;;;118.07;76.43;;;;;;;;;;4983727;28;20018;-82
2022/01/27 01:58:23;;;;;;;119.25;71.95;;;;;;;;;;5001035;28;20049;-80
2022/01/27 02:00:48;;;;;;;117.43;72.63;;;;;;;;;;4984180;28;20085;-80
2022/01/27 02:03:14;;;;;;;109.37;72.57;;;;;;;;;;4998318;28;20049;-81
2022/01/27 02:05:45;;;;;;;123.93;75.47;;;;;;;;;;4983182;28;20369;-80
2022/01/27 02:17:58;;;;;;;114.18;73.68;;;;;;;;;;5004850;28;20029;-82
2022/01/27 02:19:21;;;;;;;105.03;71.22;;;;;;;;;;5016393;28;20028;-80
2022/01/27 02:22:05;;;;;;;108.80;70.47;;;;;;;;;;4998982;28;20045;-81
2022/01/27 02:24:31;;;;;;;105.97;74.63;;;;;;;;;;4994377;28;20051;-81
2022/01/27 02:26:57;;;;;;;104.43;69.60;;;;;;;;;;4982298;28;20049;-81
2022/01/27 02:29:23;;;;;;;103.32;70.20;;;;;;;;;;5001788;28;20077;-81
2022/01/27 02:31:49;;;;;;;94.50;66.45;;;;;;;;;;4983894;28;20487;-82
2022/01/27 02:34:14;;;;;;;95.72;67.60;;;;;;;;;;4983204;28;20094;-82
2022/01/27 02:36:40;;;;;;;106.20;70.83;;;;;;;;;;4981598;28;20049;-81
2022/01/27 02:39:06;;;;;;;97.33;68.33;;;;;;;;;;4988184;28;20431;-81
2022/01/27 02:41:35;;;;;;;100.18;68.05;;;;;;;;;;5001912;28;20026;-81
2022/01/27 02:44:00;;;;;;;94.55;65.57;;;;;;;;;;4983013;28;20034;-81
2022/01/27 02:46:29;;;;;;;91.27;65.87;;;;;;;;;;4998438;28;20029;-83
2022/01/27 02:48:55;;;;;;;92.45;66.55;;;;;;;;;;4982880;28;20086;-82
2022/01/27 02:51:20;;;;;;;92.03;67.67;;;;;;;;;;4983224;28;20066;-81
2022/01/27 02:53:45;;;;;;;84.33;64.03;;;;;;;;;;4982606;28;20029;-82
2022/01/27 02:56:11;;;;;;;96.43;68.80;;;;;;;;;;4981096;28;20789;-82
2022/01/27 02:58:36;;;;;;;88.63;64.00;;;;;;;;;;4983186;28;20384;-82
2022/01/27 03:01:03;;;;;;;85.77;65.17;;;;;;;;;;4982257;28;20041;-83
2022/01/27 03:03:28;;;;;;;93.75;68.55;;;;;;;;;;4982378;28;20029;-79
2022/01/27 03:05:54;;;;;;;97.23;70.77;;;;;;;;;;4980286;28;20018;-81
2022/01/27 03:08:19;;;;;;;89.57;64.80;;;;;;;;;;4982938;28;20495;-82
2022/01/27 03:10:48;;;;;;;91.37;64.30;;;;;;;;;;5000966;28;20010;-81
2022/01/27 03:13:14;;;;;;;88.72;67.68;;;;;;;;;;4986857;28;20018;-82
2022/01/27 03:15:39;;;;;;;90.27;67.07;;;;;;;;;;5002575;28;20022;-81
2022/01/27 03:18:04;;;;;;;83.10;62.60;;;;;;;;;;4990261;28;20015;-80
2022/01/27 03:20:34;;;;;;;98.13;67.73;;;;;;;;;;5010376;28;20105;-79
2022/01/27 03:23:02;;;;;;;95.38;65.47;;;;;;;;;;4992428;28;20023;-82
2022/01/27 03:25:27;;;;;;;94.38;64.90;;;;;;;;;;4986668;28;20117;-83
2022/01/27 03:27:53;;;;;;;88.53;65.00;;;;;;;;;;4988328;28;20038;-82
2022/01/27 03:30:18;;;;;;;90.73;68.17;;;;;;;;;;4987344;28;20050;-83
2022/01/27 03:32:44;;;;;;;103.23;67.30;;;;;;;;;;4986371;28;20089;-82
2022/01/27 03:35:09;;;;;;;98.63;68.45;;;;;;;;;;4985073;28;20499;-80
2022/01/27 03:37:34;;;;;;;94.20;66.23;;;;;;;;;;4986382;28;20030;-81
2022/01/27 03:40:00;;;;;;;88.77;64.83;;;;;;;;;;4986863;28;20026;-82
2022/01/27 03:42:26;;;;;;;93.80;67.53;;;;;;;;;;4986171;28;20532;-82
2022/01/27 03:44:51;;;;;;;92.80;68.07;;;;;;;;;;4984149;28;20076;-81
2022/01/27 03:47:16;;;;;;;89.47;65.83;;;;;;;;;;4991856;28;20268;-82
2022/01/27 03:49:41;;;;;;;93.63;67.20;;;;;;;;;;4984067;28;20026;-81
2022/01/27 03:52:06;;;;;;;92.27;66.07;;;;;;;;;;4984176;28;20022;-81
2022/01/27 03:54:31;;;;;;;93.43;66.53;;;;;;;;;;4983730;28;20634;-83
2022/01/27 03:56:58;;;;;;;97.00;68.20;;;;;;;;;;4986686;28;20042;-82
2022/01/27 03:59:23;;;;;;;;;;;;;;;;;;4985329;28;20054;-81
2022/01/27 04:01:48;;;;;;;95.38;66.03;;;;;;;;;;5000547;28;19913;-81
2022/01/27 04:04:14;;;;;;;100.30;69.23;;;;;;;;;;4983313;28;20256;-81
2022/01/27 04:06:41;;;;;;;92.00;68.20;;;;;;;;;;4981265;28;20022;-80
2022/01/27 04:09:07;;;;;;;96.60;69.00;;;;;;;;;;5001589;28;20025;-80
2022/01/27 04:11:33;;;;;;;100.60;68.80;;;;;;;;;;4984145;28;20054;-80
2022/01/27 04:13:58;;;;;;;95.63;68.10;;;;;;;;;;4984555;28;20018;-80
2022/01/27 04:16:23;;;;;;;101.00;68.73;;;;;;;;;;4984909;28;20058;-80
2022/01/27 04:18:49;;;;;;;91.00;65.60;;;;;;;;;;4985011;28;20026;-81
2022/01/27 04:21:15;;;;;;;96.10;68.10;;;;;;;;;;4984301;28;20026;-81
2022/01/27 04:23:40;;;;;;;95.85;67.85;;;;;;;;;;4983564;28;20015;-81
2022/01/27 04:26:06;;;;;;;111.57;75.23;;;;;;;;;;4982253;28;20468;-81
2022/01/27 04:28:34;;;;;;;101.03;69.72;;;;;;;;;;5007798;28;20023;-81
2022/01/27 04:31:03;;;;;;;92.30;66.00;;;;;;;;;;4995244;28;20358;-82
2022/01/27 04:33:31;;;;;;;100.82;68.70;;;;;;;;;;4986605;28;20018;-80
2022/01/27 04:35:59;;;;;;;102.65;67.97;;;;;;;;;;4994748;28;20090;-80
2022/01/27 04:38:51;;;;;;;85.80;64.18;;;;;;;;;;4998740;28;20026;-81
2022/01/27 04:41:23;;;;;;;88.85;65.72;;;;;;;;;;4999058;28;20436;-81
2022/01/27 04:43:57;;;;;;;89.95;65.28;;;;;;;;;;4997573;28;20015;-81
2022/01/27 04:48:53;;;;;;;92.03;67.00;;;;;;;;;;5008786;28;20022;-81
2022/01/27 04:51:20;;;;;;;85.22;67.03;;;;;;;;;;4992334;28;20025;-82
2022/01/27 04:53:56;;;;;;;93.70;65.93;;;;;;;;;;4985208;28;20403;-83
2022/01/27 04:56:23;;;;;;;97.60;71.63;;;;;;;;;;4984882;28;20026;-81
2022/01/27 04:58:52;;;;;;;99.57;68.18;;;;;;;;;;4988948;28;20104;-81
2022/01/27 05:01:18;;;;;;;96.13;65.82;;;;;;;;;;4997862;28;20038;-80
2022/01/27 05:04:00;;;;;;;97.70;69.38;;;;;;;;;;4998810;28;20019;-81
2022/01/27 05:06:25;;;;;;;90.20;65.70;;;;;;;;;;4990246;28;20006;-81
2022/01/27 05:08:50;;;;;;;103.53;68.90;;;;;;;;;;5009789;28;20094;-83
2022/01/27 05:11:23;;;;;;;107.20;69.03;;;;;;;;;;5010908;28;20056;-81
2022/01/27 05:13:56;;;;;;;94.53;67.55;;;;;;;;;;5017863;28;20018;-81
2022/01/27 05:16:22;;;;;;;91.18;65.95;;;;;;;;;;5004198;28;20111;-80
2022/01/27 05:18:47;;;;;;;89.57;65.17;;;;;;;;;;4983894;28;20046;-81
2022/01/27 05:21:12;;;;;;;94.27;66.43;;;;;;;;;;4983082;28;20011;-81
2022/01/27 05:23:38;;;;;;;95.13;67.40;;;;;;;;;;4998748;28;20553;-81
2022/01/27 05:26:03;;;;;;;94.10;68.03;;;;;;;;;;4983414;28;20050;-81
2022/01/27 05:28:28;;;;;;;83.33;65.40;;;;;;;;;;4980323;28;20081;-81
2022/01/27 05:30:54;;;;;;;89.93;66.57;;;;;;;;;;4990567;28;20476;-80
2022/01/27 05:33:19;;;;;;;100.37;68.13;;;;;;;;;;4983234;28;20046;-79
2022/01/27 05:35:45;;;;;;;101.50;69.10;;;;;;;;;;4991904;28;20026;-80
2022/01/27 05:38:15;;;;;;;99.28;72.18;;;;;;;;;;4979670;28;20220;-80
2022/01/27 05:40:40;;;;;;;97.00;66.93;;;;;;;;;;4985092;28;20029;-81
2022/01/27 05:43:12;;;;;;;92.97;65.03;;;;;;;;;;4984891;28;20019;-81
2022/01/27 05:45:38;;;;;;;97.25;67.70;;;;;;;;;;4982542;28;20023;-80
2022/01/27 05:48:03;;;;;;;93.35;67.43;;;;;;;;;;4990201;28;20038;-80
2022/01/27 05:50:28;;;;;;;98.82;69.25;;;;;;;;;;4979484;28;20019;-80
2022/01/27 05:52:54;;;;;;;99.93;64.80;;;;;;;;;;4979356;28;20033;-80
2022/01/27 05:55:20;;;;;;;98.30;69.43;;;;;;;;;;4978872;28;20038;-81
2022/01/27 05:57:45;;;;;;;97.50;66.30;;;;;;;;;;4973970;28;20022;-79
2022/01/27 06:00:10;;;;;;;89.63;65.10;;;;;;;;;;4996551;28;20053;-78
2022/01/27 06:02:36;;;;;;;95.70;65.33;;;;;;;;;;4971561;28;20076;-79
2022/01/27 06:05:02;;;;;;;98.18;66.35;;;;;;;;;;4996018;28;20040;-79
2022/01/27 06:07:28;;;;;;;98.55;71.53;;;;;;;;;;4981197;28;20026;-78
2022/01/27 06:09:53;;;;;;;88.27;61.67;;;;;;;;;;4980201;28;20017;-80
2022/01/27 06:12:19;;;;;;;86.50;63.57;;;;;;;;;;5006702;28;20014;-78
2022/01/27 06:14:44;;;;;;;86.03;64.23;;;;;;;;;;5009260;28;20014;-78
2022/01/27 06:17:09;;;;;;;77.17;62.90;;;;;;;;;;4990639;28;20074;-79
2022/01/27 06:19:34;;;;;;;87.00;65.20;;;;;;;;;;4993404;28;20092;-79
2022/01/27 06:22:00;;;;;;;84.13;62.53;;;;;;;;;;4992851;28;20010;-77
2022/01/27 06:24:25;;;;;;;75.67;61.30;;;;;;;;;;4995064;28;20064;-82
2022/01/27 06:26:50;;;;;;;76.53;59.73;;;;;;;;;;4997120;28;20170;-80
2022/01/27 06:29:16;;;;;;;77.27;60.23;;;;;;;;;;4997465;28;20010;-80
2022/01/27 06:31:41;;;;;;;77.47;61.17;;;;;;;;;;4995692;28;20022;-79
2022/01/27 06:34:07;;;;;;;93.77;64.27;;;;;;;;;;4982102;28;20093;-80
2022/01/27 06:36:32;;;;;;;79.30;62.60;;;;;;;;;;4980335;28;20080;-80
2022/01/27 06:38:57;;;;;;;81.90;61.50;;;;;;;;;;4979954;28;20027;-80
2022/01/27 06:41:22;;;;;;;84.37;65.40;;;;;;;;;;4999153;28;20014;-81
2022/01/27 06:43:48;;;;;;;83.80;63.77;;;;;;;;;;4973995;28;20055;-80
2022/01/27 06:46:13;;;;;;;85.83;62.07;;;;;;;;;;4979228;28;20018;-82
2022/01/27 06:48:38;;;;;;;93.63;66.30;;;;;;;;;;4982359;28;20082;-80
2022/01/27 06:51:04;;;;;;;83.20;62.33;;;;;;;;;;5000335;28;20045;-80
2022/01/27 06:53:30;;;;;;;85.10;59.80;;;;;;;;;;4975963;28;20018;-80
2022/01/27 06:55:55;;;;;;;84.80;62.30;;;;;;;;;;4978386;28;20026;-82
2022/01/27 06:58:20;;;;;;;83.20;62.70;;;;;;;;;;4977773;28;20084;-81
2022/01/27 07:00:46;;;;;;;81.32;62.60;;;;;;;;;;4984589;28;20015;-80
2022/01/27 07:03:11;;;;;;;92.37;65.20;;;;;;;;;;4978831;28;20084;-81
2022/01/27 07:05:37;;;;;;;74.00;60.50;;;;;;;;;;4997201;28;20068;-80
2022/01/27 07:08:02;;;;;;;85.53;62.20;;;;;;;;;;4997651;28;19995;-80
2022/01/27 07:10:28;;;;;;;87.23;62.83;;;;;;;;;;4994949;28;20041;-79
2022/01/27 07:12:53;;;;;;;89.10;63.33;;;;;;;;;;5013682;28;20020;-79
2022/01/27 07:15:18;;;;;;;81.33;61.97;;;;;;;;;;4997771;28;20025;-80
2022/01/27 07:17:44;;;;;;;81.30;63.53;;;;;;;;;;5015694;28;20134;-79
2022/01/27 07:20:09;;;;;;;78.37;60.77;;;;;;;;;;4999440;28;20022;-80
2022/01/27 07:22:35;;;;;;;83.80;60.80;;;;;;;;;;4999045;28;20045;-79
2022/01/27 07:25:01;;;;;;;92.97;63.33;;;;;;;;;;4997823;28;20050;-80
2022/01/27 07:27:26;;;;;;;80.80;61.63;;;;;;;;;;4997563;28;20080;-79
2022/01/27 07:29:51;;;;;;;86.17;62.43;;;;;;;;;;5016187;28;20033;-79
2022/01/27 07:32:16;;;;;;;79.00;63.03;;;;;;;;;;4999522;28;20011;-78
2022/01/27 07:34:42;;;;;;;78.87;60.73;;;;;;;;;;4998292;28;20141;-80
2022/01/27 07:37:07;;;;;;;81.83;62.10;;;;;;;;;;4996197;28;20014;-80
2022/01/27 07:39:32;;;;;;;86.57;63.50;;;;;;;;;;4998617;28;20026;-79
2022/01/27 07:42:00;;;;;;;83.30;63.47;;;;;;;;;;4999107;28;20006;-79
2022/01/27 07:44:25;;;;;;;72.97;58.55;;;;;;;;;;4997138;28;20019;-80
2022/01/27 07:46:50;;;;;;;80.93;62.83;;;;;;;;;;5017394;23;20117;-86
2022/01/27 07:49:15;;;;;;;78.30;60.93;;;;;;;;;;4975871;28;20046;-86
2022/01/27 07:51:40;;;;;;;76.97;60.83;;;;;;;;;;5003404;28;20086;-86
2022/01/27 07:54:06;;;;;;;74.30;59.43;;;;;;;;;;4981250;28;20030;-86
2022/01/27 07:56:31;;;;;;;78.10;61.10;;;;;;;;;;4987221;28;20034;-87
2022/01/27 07:58:56;;;;;;;79.10;60.97;;;;;;;;;;4987700;28;20114;-87
2022/01/27 08:01:21;;;;;;;76.43;60.80;;;;;;;;;;4977844;28;20023;-87
2022/01/27 08:03:47;;;;;;;73.27;58.43;;;;;;;;;;4968265;29;20037;-87
2022/01/27 08:06:12;;;;;;;75.85;58.13;;;;;;;;;;4981281;28;20015;-87
2022/01/27 08:08:37;;;;;;;79.00;61.67;;;;;;;;;;4983956;28;20019;-87
2022/01/27 08:11:02;;;;;;;74.03;58.60;;;;;;;;;;4980393;28;20007;-88
2022/01/27 08:13:28;;;;;;;74.13;59.20;;;;;;;;;;4968316;28;20035;-86
2022/01/27 08:15:53;;;;;;;75.67;59.17;;;;;;;;;;4979655;28;20350;-87
2022/01/27 08:18:22;;;;;;;72.27;60.07;;;;;;;;;;4985247;28;20053;-86
2022/01/27 08:20:49;;;;;;;72.13;61.08;;;;;;;;;;4969897;29;20038;-86
2022/01/27 08:23:14;;;;;;;;;;;;;;;;;;4992979;28;20020;-85
2022/01/27 08:25:40;;;;;;;73.30;57.95;;;;;;;;;;4986679;28;19954;-86
2022/01/27 08:28:15;;;;;;;69.35;59.40;;;;;;;;;;4994758;28;20058;-85
2022/01/27 08:30:46;;;;;;;71.47;58.38;;;;;;;;;;5007079;28;20011;-85
2022/01/27 08:33:19;;;;;;;64.90;56.95;;;;;;;;;;4992021;28;20026;-88
2022/01/27 08:35:44;;;;;;;72.60;59.05;;;;;;;;;;4974041;28;20110;-87
2022/01/27 08:38:13;;;;;;;76.50;60.37;;;;;;;;;;4972992;28;20014;-85
2022/01/27 08:40:38;;;;;;;68.22;56.90;;;;;;;;;;4967033;28;20038;-85
2022/01/27 08:43:04;;;;;;;63.70;56.23;;;;;;;;;;4979586;28;20070;-84
2022/01/27 08:45:29;;;;;;;75.03;58.75;;;;;;;;;;4967063;28;20079;-84
2022/01/27 08:47:57;;;;;;;68.67;57.27;;;;;;;;;;4982001;28;20105;-84
2022/01/27 08:50:24;;;;;;;66.90;58.13;;;;;;;;;;4971910;28;20109;-84
2022/01/27 08:52:50;;;;;;;73.47;59.40;;;;;;;;;;4980674;28;20085;-85
2022/01/27 08:55:16;;;;;;;75.73;57.87;;;;;;;;;;4993146;28;20034;-84
2022/01/27 08:57:41;;;;;;;63.55;55.10;;;;;;;;;;4994953;28;20003;-84
2022/01/27 09:00:08;;;;;;;67.97;57.60;;;;;;;;;;4998232;28;20034;-85
2022/01/27 09:02:33;;;;;;;71.03;58.88;;;;;;;;;;4998387;28;20007;-84
2022/01/27 09:04:58;;;;;;;67.43;57.60;;;;;;;;;;4995385;28;20049;-87
2022/01/27 09:07:24;;;;;;;67.27;58.73;;;;;;;;;;4996344;28;20030;-86
2022/01/27 09:09:50;;;;;;;70.20;56.80;;;;;;;;;;4981403;28;20019;-87
2022/01/27 09:12:15;;;;;;;70.67;59.03;;;;;;;;;;4998375;28;20022;-86
2022/01/27 09:14:42;;;;;;;67.17;56.10;;;;;;;;;;4994637;28;20007;-87
2022/01/27 09:17:11;;;;;;;64.03;55.92;;;;;;;;;;4986672;28;20029;-85
2022/01/27 09:19:38;;;;;;;65.10;55.17;;;;;;;;;;4970183;28;20023;-85
2022/01/27 09:22:12;;;;;;;60.22;53.75;;;;;;;;;;4967442;28;20026;-83
2022/01/27 09:24:51;;;;;;;66.03;56.60;;;;;;;;;;4961795;29;20391;-84
2022/01/27 09:27:17;;;;;;;63.78;55.70;;;;;;;;;;4995233;28;20019;-85
2022/01/27 09:29:42;;;;;;;66.90;56.07;;;;;;;;;;4975349;28;20022;-84
2022/01/27 09:32:09;;;;;;;63.00;55.73;;;;;;;;;;4997120;28;20078;-86
2022/01/27 09:34:34;;;;;;;;;;;;;;;;;;4978028;28;20038;-83
2022/01/27 09:37:02;;;;;;;68.22;56.97;;;;;;;;;;4967798;28;19903;-85
2022/01/27 09:39:28;;;;;;;62.85;55.60;;;;;;;;;;4958932;28;20298;-85
2022/01/27 09:41:55;;;;;;;62.65;55.47;;;;;;;;;;4958582;28;20039;-85
2022/01/27 09:44:24;;;;;;;66.35;56.13;;;;;;;;;;4949446;28;20039;-84
2022/01/27 09:46:49;;;;;;;64.25;56.65;;;;;;;;;;4942955;29;20031;-85
2022/01/27 09:49:18;;;;;;;63.07;55.87;;;;;;;;;;4942545;29;20023;-85
2022/01/27 09:51:45;;;;;;;72.65;58.00;;;;;;;;;;4941761;29;20022;-84
2022/01/27 09:54:11;;;;;;;67.57;56.20;;;;;;;;;;4943147;29;20111;-84
2022/01/27 09:56:37;;;;;;;59.50;53.10;;;;;;;;;;4942721;29;20070;-83
2022/01/27 09:59:03;;;;;;;61.33;54.63;;;;;;;;;;4941723;29;20039;-84
2022/01/27 10:01:29;;;;;;;60.53;54.03;;;;;;;;;;4941709;29;20027;-84
2022/01/27 10:03:58;;;;;;;61.13;54.97;;;;;;;;;;4942562;29;20039;-85
2022/01/27 10:06:29;;;;;;;60.97;54.53;;;;;;;;;;4946668;29;20035;-85
2022/01/27 10:09:10;;;;;;;60.50;54.03;;;;;;;;;;4941961;29;20027;-83
2022/01/27 10:11:36;;;;;;;59.90;53.58;;;;;;;;;;4942123;29;20028;-86
2022/01/27 10:14:15;;;;;;;58.43;52.37;;;;;;;;;;4944900;29;20016;-85
2022/01/27 10:16:42;;;;;;;59.55;53.28;;;;;;;;;;4931954;29;20028;-85
2022/01/27 10:19:07;;;;;;;60.60;54.28;;;;;;;;;;4934019;29;20435;-85
2022/01/27 10:21:34;;;;;;;60.25;53.70;;;;;;;;;;4942116;29;20078;-86
2022/01/27 10:24:20;;;;;;;60.03;53.65;;;;;;;;;;4959182;29;20032;-84
2022/01/27 10:26:53;;;;;;;61.25;54.38;;;;;;;;;;4949015;29;20106;-85
2022/01/27 10:29:30;;;;;;;62.60;55.05;;;;;;;;;;4965531;29;20019;-86
2022/01/27 10:32:04;;;;;;;61.53;53.92;;;;;;;;;;4959324;28;20020;-85
2022/01/27 10:34:52;;;;;;;62.85;54.47;;;;;;;;;;4958678;28;20032;-85
2022/01/27 10:37:21;;;;;;;62.70;55.08;;;;;;;;;;4972283;28;20039;-85
2022/01/27 10:39:47;;;;;;;63.75;55.30;;;;;;;;;;4958168;28;20028;-84
2022/01/27 10:42:12;;;;;;;61.90;54.72;;;;;;;;;;4957401;28;20019;-83
2022/01/27 10:44:43;;;;;;;65.73;54.97;;;;;;;;;;4957651;28;20116;-86
2022/01/27 10:47:21;;;;;;;61.28;54.58;;;;;;;;;;4957540;28;20035;-84
2022/01/27 10:50:01;;;;;;;64.15;54.65;;;;;;;;;;4969599;28;20012;-84
2022/01/27 10:52:49;;;;;;;62.35;54.67;;;;;;;;;;4958010;28;20015;-86
2022/01/27 10:55:19;;;;;;;66.57;55.97;;;;;;;;;;4948216;28;20024;-86
2022/01/27 10:57:49;;;;;;;65.88;54.63;;;;;;;;;;4945985;29;20030;-84
2022/01/27 11:00:16;;;;;;;61.33;54.75;;;;;;;;;;4941926;29;20035;-85
2022/01/27 11:03:01;;;;;;;62.80;55.90;;;;;;;;;;4944760;29;20050;-86
2022/01/27 11:05:31;;;;;;;66.22;54.58;;;;;;;;;;4929903;29;20583;-84
2022/01/27 11:07:57;;;;;;;63.88;54.17;;;;;;;;;;4955600;29;20015;-84
2022/01/27 11:10:22;;;;;;;70.63;56.20;;;;;;;;;;4941393;29;20036;-86
2022/01/27 11:12:49;;;;;;;61.30;54.70;;;;;;;;;;4942425;29;20028;-86
2022/01/27 11:15:18;;;;;;;90.40;60.20;;;;;;;;;;4943041;29;20337;-85
2022/01/27 11:17:45;;;;;;;59.40;53.05;;;;;;;;;;4941529;29;20320;-85
2022/01/27 11:20:32;;;;;;;69.68;55.92;;;;;;;;;;4957319;29;20023;-85
2022/01/27 11:27:50;;;;;;;67.28;55.13;;;;;;;;;;4936118;29;20020;-85
2022/01/27 11:30:22;;;;;;;66.68;54.38;;;;;;;;;;4934821;29;20023;-84
2022/01/27 11:32:50;;;;;;;60.53;53.85;;;;;;;;;;4978062;28;20055;-84
2022/01/27 11:35:20;;;;;;;71.15;55.40;;;;;;;;;;4981691;28;20065;-85
2022/01/27 11:37:52;;;;;;;68.00;53.25;;;;;;;;;;4946906;29;20038;-84
2022/01/27 11:40:20;;;;;;;65.43;53.80;;;;;;;;;;4963641;29;20054;-84
2022/01/27 11:42:54;;;;;;;72.63;54.67;;;;;;;;;;4963824;29;20020;-84
2022/01/27 11:45:23;;;;;;;66.20;52.95;;;;;;;;;;4978961;28;20090;-84
2022/01/27 11:47:49;;;;;;;61.38;52.40;;;;;;;;;;4978708;28;20515;-85
2022/01/27 11:50:31;;;;;;;63.45;53.70;;;;;;;;;;4964776;29;20373;-84
2022/01/27 11:52:56;;;;;;;72.43;54.83;;;;;;;;;;4945520;29;20027;-84
2022/01/27 11:55:25;;;;;;;71.72;53.58;;;;;;;;;;4942219;29;20380;-84
2022/01/27 11:57:54;;;;;;;67.47;52.78;;;;;;;;;;4975833;28;20030;-84
2022/01/27 12:00:23;;;;;;;66.65;52.25;;;;;;;;;;4944110;29;20020;-84
2022/01/27 12:02:58;;;;;;;61.78;52.22;;;;;;;;;;4945102;29;20480;-84
2022/01/27 12:05:24;;;;;;;62.53;52.88;;;;;;;;;;4973688;28;20030;-84
2022/01/27 12:08:08;;;;;;;65.10;51.72;;;;;;;;;;4973077;28;20394;-86
2022/01/27 12:10:45;;;;;;;62.90;52.08;;;;;;;;;;4956722;28;20031;-84
2022/01/27 12:14:07;;;;;;;63.58;51.50;;;;;;;;;;4962619;29;20126;-84
2022/01/27 12:18:58;;;;;;;64.28;51.17;;;;;;;;;;4956927;29;20046;-84
2022/01/27 12:21:41;;;;;;;66.60;52.03;;;;;;;;;;4975719;28;20083;-84
2022/01/27 12:24:13;;;;;;;59.97;50.55;;;;;;;;;;4958408;29;20040;-84
2022/01/27 12:26:58;;;;;;;63.30;51.05;;;;;;;;;;4969558;28;20020;-85
2022/01/27 12:29:24;;;;;;;63.25;52.42;;;;;;;;;;4977227;28;20052;-85
2022/01/27 12:31:49;;;;;;;;;;;;;;;;;;4947581;29;20261;-84
2022/01/27 12:34:14;;;;;;;57.42;51.30;;;;;;;;;;4943506;29;19907;-85
2022/01/27 12:36:51;;;;;;;65.20;51.50;;;;;;;;;;4941143;29;20512;-85
2022/01/27 12:39:20;;;;;;;59.55;50.75;;;;;;;;;;4943513;29;20095;-85
2022/01/27 12:41:47;;;;;;;61.28;51.53;;;;;;;;;;4945148;29;20106;-85
2022/01/27 12:44:12;;;;;;;61.15;50.65;;;;;;;;;;4942268;29;20015;-86
2022/01/27 12:46:38;;;;;;;61.23;52.13;;;;;;;;;;4941011;29;20042;-85
2022/01/27 12:49:04;;;;;;;59.10;50.30;;;;;;;;;;4944007;29;20604;-85
2022/01/27 12:51:46;;;;;;;67.07;51.22;;;;;;;;;;4950112;29;20023;-85
2022/01/27 12:54:11;;;;;;;63.58;51.67;;;;;;;;;;4959944;29;20131;-85
2022/01/27 12:56:36;;;;;;;62.87;52.87;;;;;;;;;;4954893;28;20024;-84
2022/01/27 12:59:01;;;;;;;56.63;50.47;;;;;;;;;;4957682;28;20038;-84
2022/01/27 13:01:32;;;;;;;80.57;54.67;;;;;;;;;;4955859;29;20003;-85
2022/01/27 13:04:01;;;;;;;70.03;53.03;;;;;;;;;;4952298;29;20035;-83
2022/01/27 13:06:30;;;;;;;56.78;50.72;;;;;;;;;;4946408;29;20075;-84
2022/01/27 13:09:14;;;;;;;66.00;52.05;;;;;;;;;;4943569;29;20019;-85
2022/01/27 13:11:40;;;;;;;64.43;50.50;;;;;;;;;;4947462;29;20068;-85
2022/01/27 13:14:05;;;;;;;;;;;;;;;;;;4947365;29;20026;-86
2022/01/27 13:16:39;;;;;;;63.00;50.67;;;;;;;;;;4976335;28;19906;-87
2022/01/27 13:19:09;;;;;;;60.92;50.47;;;;;;;;;;4955137;29;20458;-85
2022/01/27 13:21:37;;;;;;;59.78;50.92;;;;;;;;;;4945565;29;20023;-84
2022/01/27 13:24:14;;;;;;;57.80;50.72;;;;;;;;;;4945240;29;20055;-86
2022/01/27 13:26:44;;;;;;;59.55;51.35;;;;;;;;;;4948424;29;20051;-87
2022/01/27 13:29:09;;;;;;;57.60;51.25;;;;;;;;;;4946822;29;20007;-85
2022/01/27 13:31:35;;;;;;;63.10;51.00;;;;;;;;;;4944072;29;20474;-87
2022/01/27 13:34:01;;;;;;;56.73;50.33;;;;;;;;;;4947831;29;20051;-86
2022/01/27 13:36:26;;;;;;;65.00;50.88;;;;;;;;;;4944222;29;20031;-87
2022/01/27 13:39:36;;;;;;;61.95;51.60;;;;;;;;;;4945019;28;20399;-89
2022/01/27 13:42:08;;;;;;;67.07;51.55;;;;;;;;;;4946502;29;20558;-88
2022/01/27 13:44:36;;;;;;;66.63;51.70;;;;;;;;;;4943590;29;20015;-88
2022/01/27 13:47:04;;;;;;;55.67;50.03;;;;;;;;;;5014790;23;20035;-89
2022/01/27 13:49:33;;;;;;;58.10;50.88;;;;;;;;;;4977787;28;20111;-88
2022/01/27 13:52:17;;;;;;;60.13;49.97;;;;;;;;;;4987213;28;20034;-88
2022/01/27 13:54:47;;;;;;;64.53;50.88;;;;;;;;;;4984657;28;20081;-87
2022/01/27 13:57:14;;;;;;;63.95;50.90;;;;;;;;;;4985065;28;20026;-86
2022/01/27 13:59:39;;;;;;;;;;;;;;;;;;5002836;28;20023;-88
2022/01/27 14:02:14;;;;;;;62.85;50.60;;;;;;;;;;5025954;28;19921;-88
2022/01/27 14:04:49;;;;;;;63.53;50.72;;;;;;;;;;4990074;28;20046;-88
2022/01/27 14:07:34;;;;;;;67.25;50.72;;;;;;;;;;4984841;28;20083;-86
2022/01/27 14:10:15;;;;;;;56.35;50.40;;;;;;;;;;4988879;28;20050;-87
2022/01/27 14:12:43;;;;;;;58.42;50.03;;;;;;;;;;4987327;28;20457;-87
2022/01/27 14:15:25;;;;;;;64.15;51.05;;;;;;;;;;4986705;28;20054;-87
2022/01/27 14:17:55;;;;;;;58.65;50.58;;;;;;;;;;4981328;28;20026;-86
2022/01/27 14:20:21;;;;;;;59.00;50.58;;;;;;;;;;4978439;28;20338;-86
2022/01/27 14:22:51;;;;;;;65.18;51.40;;;;;;;;;;4982763;28;20015;-86
2022/01/27 14:25:22;;;;;;;58.10;49.58;;;;;;;;;;4982460;28;20018;-88
2022/01/27 14:27:47;;;;;;;60.67;51.25;;;;;;;;;;4982258;28;20041;-86
2022/01/27 14:30:14;;;;;;;62.03;51.93;;;;;;;;;;4983461;28;20023;-87
2022/01/27 14:32:40;;;;;;;59.28;51.33;;;;;;;;;;5018892;28;20014;-87
2022/01/27 14:35:07;;;;;;;56.42;50.35;;;;;;;;;;4986732;28;20034;-85
2022/01/27 14:37:32;;;;;;;;;;;;;;;;;;4979650;28;20027;-86
2022/01/27 14:39:58;;;;;;;64.22;51.47;;;;;;;;;;4980776;28;20433;-86
2022/01/27 14:42:25;;;;;;;65.27;52.80;;;;;;;;;;5013107;28;20114;-85
2022/01/27 14:44:51;;;;;;;65.40;51.35;;;;;;;;;;4979515;28;20029;-84
2022/01/27 14:47:16;;;;;;;61.53;50.25;;;;;;;;;;4977084;28;20027;-88
2022/01/27 14:49:44;;;;;;;61.17;52.13;;;;;;;;;;4979003;28;20505;-85
2022/01/27 14:52:13;;;;;;;66.05;52.28;;;;;;;;;;4979659;28;20060;-86
2022/01/27 14:54:38;;;;;;;61.78;50.63;;;;;;;;;;5013842;28;20031;-87
2022/01/27 14:57:04;;;;;;;62.67;51.00;;;;;;;;;;4980855;28;20113;-87
2022/01/27 14:59:29;;;;;;;58.03;50.53;;;;;;;;;;4971925;28;20027;-86
2022/01/27 15:01:54;;;;;;;57.10;50.10;;;;;;;;;;4967864;28;20140;-86
2022/01/27 15:04:19;;;;;;;54.77;49.00;;;;;;;;;;4980459;28;20019;-86
2022/01/27 15:06:45;;;;;;;60.87;51.13;;;;;;;;;;4982976;28;20023;-89
2022/01/27 15:09:10;;;;;;;57.50;49.53;;;;;;;;;;4979560;28;20015;-88
2022/01/27 15:11:38;;;;;;;59.30;50.93;;;;;;;;;;5000016;28;20119;-89
2022/01/27 15:18:48;;;;;;;60.30;49.67;;;;;;;;;;4983161;28;20031;-87